createdAt,value
2019-02-27T00:00:22.596Z,43.87
2019-02-27T00:02:50.859Z,43.08
2019-02-27T00:05:19.098Z,43.73
2019-02-27T00:07:47.355Z,44.23
2019-02-27T00:10:15.603Z,41.48
2019-02-27T00:12:43.877Z,44.93
2019-02-27T00:15:12.113Z,44.05
2019-02-27T00:17:40.366Z,42.60
2019-02-27T00:20:08.620Z,43.10
2019-02-27T00:22:36.854Z,42.50
2019-02-27T00:25:05.267Z,43.75
2019-02-27T00:27:33.508Z,41.73
2019-02-27T00:30:04.621Z,41.95
2019-02-27T00:32:31.733Z,42.20
2019-02-27T00:35:00.009Z,40.40
2019-02-27T00:37:28.332Z,42.95
2019-02-27T00:39:56.600Z,41.13
2019-02-27T00:42:33.331Z,40.25
2019-02-27T00:44:54.844Z,41.08
2019-02-27T00:47:23.083Z,41.53
2019-02-27T00:49:51.333Z,41.08
2019-02-27T00:52:19.590Z,41.95
2019-02-27T00:54:47.824Z,39.53
2019-02-27T00:57:20.514Z,39.20
2019-02-27T00:59:46.098Z,38.13
2019-02-27T01:02:14.352Z,38.48
2019-02-27T01:04:42.589Z,38.55
2019-02-27T01:07:10.834Z,38.55
2019-02-27T01:09:39.550Z,40.05
2019-02-27T01:12:08.330Z,40.05
2019-02-27T01:14:37.191Z,39.65
2019-02-27T01:17:06.011Z,37.70
2019-02-27T01:19:38.342Z,40.20
2019-02-27T01:22:04.237Z,40.10
2019-02-27T01:24:32.501Z,38.00
2019-02-27T01:27:04.295Z,40.45
2019-02-27T01:29:30.769Z,38.13
2019-02-27T01:31:59.006Z,38.28
2019-02-27T01:34:27.301Z,36.93
2019-02-27T01:36:57.996Z,38.63
2019-02-27T01:39:25.525Z,37.08
2019-02-27T01:41:55.356Z,37.17
2019-02-27T01:44:23.726Z,39.40
2019-02-27T01:46:51.998Z,37.67
2019-02-27T01:49:20.230Z,37.42
2019-02-27T01:51:48.502Z,37.25
2019-02-27T01:54:16.750Z,38.38
2019-02-27T01:56:44.989Z,36.70
2019-02-27T01:59:14.045Z,36.77
2019-02-27T02:01:43.226Z,37.78
2019-02-27T02:04:11.488Z,36.95
2019-02-27T02:06:39.752Z,37.00
2019-02-27T02:09:11.269Z,37.30
2019-02-27T02:11:41.178Z,36.08
2019-02-27T02:14:37.069Z,37.28
2019-02-27T02:17:41.803Z,35.52
2019-02-27T02:20:37.459Z,36.20
2019-02-27T02:23:14.808Z,35.45
2019-02-27T02:25:55.183Z,36.15
2019-02-27T02:28:48.233Z,36.68
2019-02-27T02:31:41.039Z,38.63
2019-02-27T02:34:56.901Z,38.02
2019-02-27T02:37:44.812Z,37.03
2019-02-27T02:40:32.071Z,36.73
2019-02-27T02:43:18.743Z,38.92
2019-02-27T02:46:10.965Z,37.33
2019-02-27T02:49:15.843Z,37.08
2019-02-27T02:52:05.564Z,36.98
2019-02-27T02:54:50.578Z,37.85
2019-02-27T02:57:22.107Z,37.28
2019-02-27T03:00:13.482Z,37.28
2019-02-27T03:02:50.554Z,39.10
2019-02-27T03:05:24.578Z,37.23
2019-02-27T03:08:19.819Z,37.42
2019-02-27T03:10:59.008Z,37.75
2019-02-27T03:13:41.478Z,38.23
2019-02-27T03:16:18.016Z,37.38
2019-02-27T03:19:20.947Z,35.95
2019-02-27T03:22:10.377Z,38.02
2019-02-27T03:24:50.806Z,38.38
2019-02-27T03:27:43.164Z,37.78
2019-02-27T03:30:14.667Z,38.85
2019-02-27T03:33:05.467Z,37.20
2019-02-27T03:36:04.437Z,38.00
2019-02-27T03:38:51.112Z,36.33
2019-02-27T03:41:59.455Z,37.35
2019-02-27T03:44:33.437Z,38.15
2019-02-27T03:47:07.510Z,36.98
2019-02-27T03:49:40.803Z,37.10
2019-02-27T03:52:36.077Z,35.48
2019-02-27T03:55:08.967Z,36.68
2019-02-27T03:57:58.677Z,37.38
2019-02-27T04:00:53.804Z,38.42
2019-02-27T04:03:41.277Z,35.60
2019-02-27T04:06:21.747Z,35.35
2019-02-27T04:08:56.881Z,34.85
2019-02-27T04:11:25.192Z,37.28
2019-02-27T04:13:53.524Z,34.90
2019-02-27T04:16:21.781Z,37.50
2019-02-27T04:18:50.024Z,35.23
2019-02-27T04:21:22.074Z,36.10
2019-02-27T04:23:49.287Z,37.42
2019-02-27T04:26:19.414Z,36.95
2019-02-27T04:28:47.688Z,35.43
2019-02-27T04:31:15.944Z,35.85
2019-02-27T04:33:44.207Z,36.40
2019-02-27T04:36:13.382Z,34.75
2019-02-27T04:38:41.866Z,34.98
2019-02-27T04:41:10.110Z,35.35
2019-02-27T04:43:38.384Z,36.13
2019-02-27T04:46:06.657Z,36.55
2019-02-27T04:48:34.909Z,35.92
2019-02-27T04:51:03.149Z,34.13
2019-02-27T04:53:31.909Z,34.75
2019-02-27T04:56:00.818Z,36.03
2019-02-27T04:58:31.213Z,35.23
2019-02-27T05:00:59.793Z,36.15
2019-02-27T05:03:28.637Z,35.55
2019-02-27T05:05:57.044Z,34.48
2019-02-27T05:08:27.236Z,35.45
2019-02-27T05:10:55.259Z,36.13
2019-02-27T05:13:23.515Z,35.00
2019-02-27T05:15:51.768Z,34.23
2019-02-27T05:18:20.065Z,34.23
2019-02-27T05:20:48.318Z,36.45
2019-02-27T05:23:16.604Z,35.65
2019-02-27T05:25:44.898Z,36.40
2019-02-27T05:28:13.166Z,36.42
2019-02-27T05:30:44.799Z,36.85
2019-02-27T05:33:11.384Z,36.00
2019-02-27T05:35:39.647Z,36.00
2019-02-27T05:38:07.886Z,35.80
2019-02-27T05:40:36.133Z,36.33
2019-02-27T05:43:04.389Z,35.73
2019-02-27T05:45:32.641Z,36.28
2019-02-27T05:48:00.913Z,35.92
2019-02-27T05:50:29.146Z,35.63
2019-02-27T05:52:57.394Z,35.60
2019-02-27T05:55:25.657Z,35.75
2019-02-27T05:57:53.896Z,35.92
2019-02-27T06:00:22.538Z,35.00
2019-02-27T06:02:50.782Z,35.88
2019-02-27T06:05:19.022Z,36.08
2019-02-27T06:07:47.309Z,34.48
2019-02-27T06:10:19.750Z,35.92
2019-02-27T06:12:47.338Z,35.78
2019-02-27T06:15:35.033Z,36.75
2019-02-27T06:18:03.310Z,35.15
2019-02-27T06:20:31.542Z,38.02
2019-02-27T06:23:04.148Z,36.88
2019-02-27T06:25:29.777Z,35.83
2019-02-27T06:27:58.015Z,37.53
2019-02-27T06:30:27.902Z,38.48
2019-02-27T06:32:56.244Z,37.08
2019-02-27T06:35:24.509Z,36.35
2019-02-27T06:37:52.782Z,40.45
2019-02-27T06:40:21.041Z,39.10
2019-02-27T06:42:53.376Z,39.95
2019-02-27T06:45:19.253Z,41.00
2019-02-27T06:47:47.529Z,41.80
2019-02-27T06:50:16.426Z,40.03
2019-02-27T06:52:44.682Z,40.70
2019-02-27T06:55:14.094Z,39.88
2019-02-27T06:57:42.375Z,40.67
2019-02-27T07:00:19.124Z,41.00
2019-02-27T07:02:47.386Z,41.65
2019-02-27T07:05:15.669Z,41.70
2019-02-27T07:07:43.988Z,43.05
2019-02-27T07:10:19.512Z,44.88
2019-02-27T07:12:46.635Z,43.33
2019-02-27T07:15:23.761Z,42.08
2019-02-27T07:17:52.092Z,47.08
2019-02-27T07:20:23.878Z,42.35
2019-02-27T07:22:50.338Z,43.38
2019-02-27T07:25:18.950Z,47.45
2019-02-27T07:27:47.197Z,44.35
2019-02-27T07:30:17.216Z,44.93
2019-02-27T07:32:45.454Z,47.23
2019-02-27T07:35:14.829Z,45.05
2019-02-27T07:37:47.109Z,46.53
2019-02-27T07:40:17.711Z,46.45
2019-02-27T07:42:45.942Z,46.42
2019-02-27T07:45:19.187Z,47.33
2019-02-27T07:47:47.500Z,42.78
2019-02-27T07:50:17.777Z,46.42
2019-02-27T07:52:46.033Z,46.48
2019-02-27T07:55:21.889Z,46.75
2019-02-27T07:57:47.698Z,44.75
2019-02-27T08:00:21.195Z,47.70
2019-02-27T08:02:49.456Z,48.87
2019-02-27T08:05:17.725Z,64.00
2019-02-27T08:07:48.650Z,77.95
2019-02-27T08:10:25.851Z,87.15
2019-02-27T08:12:56.540Z,74.05
2019-02-27T08:15:25.207Z,69.00
2019-02-27T08:17:57.549Z,62.10
2019-02-27T08:20:23.797Z,59.67
2019-02-27T08:22:52.026Z,60.83
2019-02-27T08:25:20.278Z,49.58
2019-02-27T08:27:48.529Z,47.95
2019-02-27T08:30:19.342Z,46.77
2019-02-27T08:32:47.682Z,45.20
2019-02-27T08:35:16.718Z,42.75
2019-02-27T08:37:45.155Z,38.95
2019-02-27T08:40:14.035Z,38.83
2019-02-27T08:42:42.324Z,40.38
2019-02-27T08:45:19.924Z,39.35
2019-02-27T08:47:46.541Z,42.23
2019-02-27T08:50:16.507Z,36.53
2019-02-27T08:52:44.843Z,38.00
2019-02-27T08:55:19.919Z,39.13
2019-02-27T08:57:45.729Z,41.30
2019-02-27T09:00:32.885Z,41.53
2019-02-27T09:03:02.867Z,40.40
2019-02-27T09:05:31.297Z,41.35
2019-02-27T09:07:59.585Z,41.42
2019-02-27T09:10:30.402Z,41.20
2019-02-27T09:15:27.758Z,39.45
2019-02-27T09:17:56.029Z,37.25
2019-02-27T09:20:24.280Z,33.42
2019-02-27T09:22:52.537Z,32.63
2019-02-27T09:25:23.925Z,32.38
2019-02-27T09:27:50.771Z,31.20
2019-02-27T09:30:21.501Z,31.68
2019-02-27T09:32:49.762Z,30.40
2019-02-27T09:35:18.010Z,30.80
2019-02-27T09:37:48.345Z,30.17
2019-02-27T09:40:27.189Z,29.42
2019-02-27T09:42:55.430Z,29.45
2019-02-27T09:45:31.061Z,28.77
2019-02-27T09:48:00.563Z,29.10
2019-02-27T09:50:37.416Z,29.63
2019-02-27T09:53:05.693Z,28.70
2019-02-27T09:55:33.942Z,29.45
2019-02-27T09:58:02.293Z,29.23
2019-02-27T10:01:03.133Z,30.00
2019-02-27T10:03:32.889Z,29.92
2019-02-27T10:06:01.371Z,29.72
2019-02-27T10:08:29.636Z,29.70
2019-02-27T10:10:57.897Z,29.52
2019-02-27T10:13:26.170Z,29.25
2019-02-27T10:15:54.416Z,27.00
2019-02-27T10:18:22.671Z,27.52
2019-02-27T10:20:50.919Z,28.17
2019-02-27T10:23:19.192Z,27.85
2019-02-27T10:25:47.444Z,27.40
2019-02-27T10:28:15.692Z,26.45
2019-02-27T10:30:44.192Z,26.95
2019-02-27T10:33:12.578Z,26.87
2019-02-27T10:35:40.839Z,26.48
2019-02-27T10:38:09.082Z,26.05
2019-02-27T10:40:37.360Z,26.68
2019-02-27T10:43:05.627Z,26.50
2019-02-27T10:45:33.896Z,26.87
2019-02-27T10:48:02.146Z,25.25
2019-02-27T10:50:30.409Z,26.20
2019-02-27T10:52:58.678Z,25.52
2019-02-27T10:55:27.213Z,26.12
2019-02-27T10:57:55.677Z,25.75
2019-02-27T11:00:49.316Z,26.90
2019-02-27T11:03:17.586Z,26.35
2019-02-27T11:05:45.831Z,26.12
2019-02-27T11:08:14.090Z,26.00
2019-02-27T11:10:42.357Z,25.70
2019-02-27T11:13:10.615Z,26.33
2019-02-27T11:15:41.426Z,26.33
2019-02-27T11:18:08.950Z,25.25
2019-02-27T11:20:37.303Z,26.05
2019-02-27T11:23:07.088Z,26.48
2019-02-27T11:25:35.549Z,26.37
2019-02-27T11:28:03.827Z,25.68
2019-02-27T11:30:42.459Z,25.75
2019-02-27T11:33:10.801Z,25.45
2019-02-27T11:35:39.066Z,25.68
2019-02-27T11:38:07.389Z,25.60
2019-02-27T11:40:35.674Z,26.60
2019-02-27T11:43:06.710Z,26.42
2019-02-27T11:45:33.937Z,25.30
2019-02-27T11:48:02.209Z,26.82
2019-02-27T11:50:30.634Z,26.80
2019-02-27T11:53:01.829Z,26.68
2019-02-27T11:55:29.252Z,26.50
2019-02-27T11:57:57.780Z,26.12
2019-02-27T12:00:31.370Z,25.10
2019-02-27T12:02:59.748Z,26.42
2019-02-27T12:05:33.877Z,26.95
2019-02-27T12:07:58.244Z,26.48
2019-02-27T12:10:31.646Z,26.95
2019-02-27T12:13:01.230Z,25.95
2019-02-27T12:15:29.961Z,25.60
2019-02-27T12:18:00.423Z,24.60
2019-02-27T12:20:28.188Z,26.48
2019-02-27T12:22:56.451Z,25.65
2019-02-27T12:25:29.094Z,26.48
2019-02-27T12:27:56.427Z,25.23
2019-02-27T12:30:29.495Z,26.55
2019-02-27T12:32:57.783Z,25.88
2019-02-27T12:35:29.040Z,26.62
2019-02-27T12:37:57.422Z,25.80
2019-02-27T12:40:26.065Z,23.50
2019-02-27T12:42:54.530Z,23.85
2019-02-27T12:45:25.837Z,24.00
2019-02-27T12:47:54.795Z,22.87
2019-02-27T12:50:30.815Z,24.72
2019-02-27T12:52:57.353Z,24.92
2019-02-27T12:55:25.800Z,24.47
2019-02-27T12:57:54.152Z,24.77
2019-02-27T13:00:27.461Z,23.92
2019-02-27T13:02:55.855Z,24.92
2019-02-27T13:05:27.362Z,23.98
2019-02-27T13:07:54.547Z,24.35
2019-02-27T13:10:24.101Z,23.85
2019-02-27T13:12:52.666Z,23.85
2019-02-27T13:15:40.996Z,23.25
2019-02-27T13:18:09.978Z,23.75
2019-02-27T13:20:38.249Z,22.67
2019-02-27T13:23:06.516Z,24.72
2019-02-27T13:25:34.784Z,22.87
2019-02-27T13:28:03.042Z,22.70
2019-02-27T13:30:31.310Z,22.00
2019-02-27T13:33:01.286Z,21.97
2019-02-27T13:35:29.542Z,21.45
2019-02-27T13:37:57.887Z,20.08
2019-02-27T13:40:35.359Z,20.65
2019-02-27T13:44:18.108Z,20.75
2019-02-27T13:46:46.382Z,20.35
2019-02-27T13:49:14.668Z,20.45
2019-02-27T13:51:42.954Z,20.12
2019-02-27T13:54:11.199Z,20.23
2019-02-27T13:56:39.461Z,20.23
2019-02-27T13:59:11.004Z,19.12
2019-02-27T14:01:37.694Z,19.32
2019-02-27T14:04:05.957Z,19.87
2019-02-27T14:06:34.317Z,19.05
2019-02-27T14:09:04.461Z,17.52
2019-02-27T14:11:32.610Z,17.37
2019-02-27T14:14:00.885Z,18.57
2019-02-27T14:16:29.117Z,16.23
2019-02-27T14:18:57.409Z,16.10
2019-02-27T14:21:25.673Z,16.30
2019-02-27T14:23:53.949Z,17.07
2019-02-27T14:26:22.213Z,16.35
2019-02-27T14:28:52.170Z,16.52
2019-02-27T14:31:20.428Z,16.40
2019-02-27T14:33:51.181Z,16.73
2019-02-27T14:36:18.669Z,16.77
2019-02-27T14:38:46.941Z,16.27
2019-02-27T14:41:15.216Z,15.45
2019-02-27T14:43:43.472Z,15.83
2019-02-27T14:46:12.261Z,15.70
2019-02-27T14:48:40.572Z,16.45
2019-02-27T14:51:11.052Z,16.10
2019-02-27T14:53:38.798Z,15.60
2019-02-27T14:56:10.019Z,14.83
2019-02-27T14:58:37.057Z,14.68
2019-02-27T15:01:05.326Z,15.35
2019-02-27T15:03:33.599Z,14.98
2019-02-27T15:06:01.918Z,15.95
2019-02-27T15:08:30.158Z,16.00
2019-02-27T15:10:58.441Z,15.90
2019-02-27T15:13:28.308Z,15.70
2019-02-27T15:15:56.662Z,15.70
2019-02-27T15:18:24.934Z,15.95
2019-02-27T15:20:53.246Z,15.93
2019-02-27T15:23:24.589Z,17.07
2019-02-27T15:25:51.494Z,16.17
2019-02-27T15:28:19.749Z,16.15
2019-02-27T15:30:48.250Z,16.62
2019-02-27T15:33:16.551Z,15.83
2019-02-27T15:35:44.861Z,17.37
2019-02-27T15:38:13.129Z,17.42
2019-02-27T15:40:41.370Z,17.77
2019-02-27T15:43:11.521Z,16.87
2019-02-27T15:45:47.302Z,18.25
2019-02-27T15:48:09.622Z,20.05
2019-02-27T15:50:37.930Z,20.25
2019-02-27T15:53:06.207Z,20.57
2019-02-27T15:55:35.359Z,19.87
2019-02-27T15:58:04.001Z,20.82
2019-02-27T16:00:32.262Z,20.48
2019-02-27T16:03:00.523Z,20.75
2019-02-27T16:05:31.529Z,21.30
2019-02-27T16:08:00.491Z,20.90
2019-02-27T16:10:29.056Z,20.60
2019-02-27T16:13:01.007Z,20.82
2019-02-27T16:15:27.622Z,20.12
2019-02-27T16:17:55.969Z,20.85
2019-02-27T16:20:25.040Z,20.82
2019-02-27T16:22:53.336Z,23.07
2019-02-27T16:25:22.948Z,21.42
2019-02-27T16:27:51.281Z,21.85
2019-02-27T16:30:31.137Z,21.73
2019-02-27T16:32:55.480Z,21.97
2019-02-27T16:35:23.811Z,23.85
2019-02-27T16:37:56.331Z,21.68
2019-02-27T16:40:23.299Z,22.00
2019-02-27T16:42:51.748Z,23.02
2019-02-27T16:45:22.653Z,24.52
2019-02-27T16:47:50.917Z,26.15
2019-02-27T16:50:23.904Z,29.18
2019-02-27T16:52:51.220Z,24.82
2019-02-27T16:55:21.268Z,25.92
2019-02-27T16:57:49.540Z,23.05
2019-02-27T17:00:23.256Z,21.95
2019-02-27T17:02:51.573Z,23.18
2019-02-27T17:05:19.825Z,23.52
2019-02-27T17:07:48.069Z,23.32
2019-02-27T17:10:22.232Z,24.98
2019-02-27T17:12:50.493Z,24.52
2019-02-27T17:15:18.779Z,25.27
2019-02-27T17:17:47.036Z,27.52
2019-02-27T17:20:18.005Z,27.07
2019-02-27T17:22:46.274Z,24.15
2019-02-27T17:25:14.689Z,24.12
2019-02-27T17:27:43.121Z,23.83
2019-02-27T17:30:14.938Z,24.27
2019-02-27T17:32:43.173Z,24.00
2019-02-27T17:35:11.648Z,24.05
2019-02-27T17:37:40.655Z,25.10
2019-02-27T17:40:11.573Z,23.70
2019-02-27T17:42:39.891Z,25.92
2019-02-27T17:45:13.207Z,25.80
2019-02-27T17:47:41.701Z,24.37
2019-02-27T17:50:11.346Z,25.65
2019-02-27T17:52:39.658Z,25.55
2019-02-27T17:55:11.175Z,26.45
2019-02-27T17:57:39.873Z,29.07
2019-02-27T18:00:24.025Z,31.35
2019-02-27T18:02:54.315Z,33.28
2019-02-27T18:05:25.348Z,32.50
2019-02-27T18:07:52.598Z,32.60
2019-02-27T18:10:21.145Z,31.27
2019-02-27T18:12:51.662Z,30.05
2019-02-27T18:15:21.613Z,30.77
2019-02-27T18:17:49.914Z,28.60
2019-02-27T18:20:18.167Z,26.93
2019-02-27T18:22:49.390Z,26.45
2019-02-27T18:25:18.080Z,25.62
2019-02-27T18:27:47.903Z,25.12
2019-02-27T18:30:20.857Z,23.52
2019-02-27T18:32:49.453Z,24.52
2019-02-27T18:35:18.743Z,24.07
2019-02-27T18:37:46.986Z,22.80
2019-02-27T18:40:16.296Z,22.13
2019-02-27T18:42:44.544Z,22.10
2019-02-27T18:45:16.235Z,22.52
2019-02-27T18:47:44.500Z,22.73
2019-02-27T18:50:14.285Z,21.77
2019-02-27T18:52:42.530Z,21.73
2019-02-27T18:55:14.997Z,21.62
2019-02-27T18:57:47.268Z,21.12
2019-02-27T19:00:21.730Z,20.85
2019-02-27T19:02:55.431Z,20.08
2019-02-27T19:05:23.784Z,22.07
2019-02-27T19:07:55.014Z,21.27
2019-02-27T19:10:22.093Z,21.33
2019-02-27T19:12:50.364Z,21.37
2019-02-27T19:15:28.926Z,21.57
2019-02-27T19:17:57.173Z,22.32
2019-02-27T19:20:46.331Z,21.97
2019-02-27T19:23:17.275Z,21.52
2019-02-27T19:25:44.588Z,20.75
2019-02-27T19:28:12.841Z,21.52
2019-02-27T19:30:41.764Z,22.22
2019-02-27T19:33:10.912Z,22.62
2019-02-27T19:35:39.728Z,21.57
2019-02-27T19:38:12.584Z,22.37
2019-02-27T19:40:37.966Z,22.25
2019-02-27T19:43:06.421Z,22.65
2019-02-27T19:45:35.755Z,22.35
2019-02-27T19:48:04.776Z,22.62
2019-02-27T19:50:33.066Z,21.48
2019-02-27T19:53:05.218Z,21.65
2019-02-27T19:55:31.302Z,21.52
2019-02-27T19:57:59.602Z,22.40
2019-02-27T20:00:35.028Z,22.58
2019-02-27T20:03:02.375Z,22.85
2019-02-27T20:05:30.867Z,21.07
2019-02-27T20:07:59.102Z,22.77
2019-02-27T20:10:32.257Z,22.30
2019-02-27T20:12:58.925Z,21.77
2019-02-27T20:15:27.199Z,22.32
2019-02-27T20:17:55.521Z,22.07
2019-02-27T20:20:24.222Z,21.57
2019-02-27T20:22:53.551Z,22.05
2019-02-27T20:25:24.561Z,22.25
2019-02-27T20:27:52.828Z,20.75
2019-02-27T20:30:22.177Z,21.37
2019-02-27T20:32:50.533Z,23.30
2019-02-27T20:35:20.844Z,21.73
2019-02-27T20:37:49.305Z,22.15
2019-02-27T20:40:19.500Z,21.57
2019-02-27T20:42:51.427Z,22.30
2019-02-27T20:45:19.382Z,23.20
2019-02-27T20:47:47.654Z,22.22
2019-02-27T20:50:39.974Z,22.25
2019-02-27T20:53:10.268Z,21.85
2019-02-27T20:55:38.505Z,22.07
2019-02-27T20:58:06.970Z,21.77
2019-02-27T21:00:36.530Z,22.25
2019-02-27T21:03:08.996Z,21.82
2019-02-27T21:05:40.990Z,23.40
2019-02-27T21:08:07.590Z,22.70
2019-02-27T21:10:35.868Z,22.60
2019-02-27T21:13:04.598Z,21.65
2019-02-27T21:15:33.442Z,22.52
2019-02-27T21:18:01.851Z,22.15
2019-02-27T21:20:30.113Z,22.55
2019-02-27T21:22:59.933Z,22.20
2019-02-27T21:25:28.520Z,22.90
2019-02-27T21:27:56.776Z,21.23
2019-02-27T21:30:25.785Z,23.30
2019-02-27T21:32:54.064Z,23.90
2019-02-27T21:35:22.318Z,22.77
2019-02-27T21:37:51.091Z,22.65
2019-02-27T21:40:40.447Z,23.20
2019-02-27T21:43:08.682Z,23.75
2019-02-27T21:45:37.422Z,23.15
2019-02-27T21:48:06.748Z,22.80
2019-02-27T21:50:39.598Z,23.32
2019-02-27T21:53:05.086Z,23.42
2019-02-27T21:55:33.456Z,22.98
2019-02-27T21:58:01.853Z,23.47
2019-02-27T22:00:30.486Z,22.22
2019-02-27T22:03:03.870Z,23.38
2019-02-27T22:05:52.598Z,22.95
2019-02-27T22:08:18.771Z,23.25
2019-02-27T22:10:47.052Z,22.45
2019-02-27T22:13:15.333Z,23.05
2019-02-27T22:15:43.600Z,22.07
2019-02-27T22:18:12.160Z,22.60
2019-02-27T22:20:40.475Z,23.85
2019-02-27T22:23:08.731Z,24.27
2019-02-27T22:25:37.011Z,23.35
2019-02-27T22:28:05.244Z,23.92
2019-02-27T22:30:33.557Z,23.52
2019-02-27T22:33:01.905Z,23.05
2019-02-27T22:35:30.505Z,23.87
2019-02-27T22:37:58.896Z,23.57
2019-02-27T22:40:27.255Z,23.67
2019-02-27T22:42:55.505Z,23.77
2019-02-27T22:45:23.774Z,21.65
2019-02-27T22:47:54.025Z,24.95
2019-02-27T22:50:22.022Z,24.80
2019-02-27T22:52:54.060Z,24.77
2019-02-27T22:55:20.261Z,27.13
2019-02-27T22:57:48.503Z,27.27
2019-02-27T23:00:53.297Z,26.77
2019-02-27T23:03:24.513Z,29.92
2019-02-27T23:05:52.889Z,27.15
2019-02-27T23:08:22.994Z,25.45
2019-02-27T23:10:51.124Z,26.87
2019-02-27T23:13:19.378Z,27.70
2019-02-27T23:15:47.640Z,28.90
2019-02-27T23:18:16.942Z,30.75
2019-02-27T23:20:45.233Z,32.05
2019-02-27T23:23:13.481Z,34.48
2019-02-27T23:25:42.300Z,32.25
2019-02-27T23:28:10.581Z,33.48
2019-02-27T23:30:38.831Z,34.85
2019-02-27T23:33:08.301Z,36.03
2019-02-27T23:35:36.568Z,36.20
2019-02-27T23:38:04.829Z,38.58
2019-02-27T23:40:33.101Z,42.23
2019-02-27T23:43:03.303Z,42.43
2019-02-27T23:45:31.329Z,41.95
2019-02-27T23:48:02.167Z,44.70
2019-02-27T23:50:29.546Z,46.45
2019-02-27T23:52:57.790Z,45.88
2019-02-27T23:55:26.071Z,47.90
2019-02-27T23:57:57.534Z,47.83
